Nearby METAR Reports

 

KCMA - Camarillo, California, USA
Distance from station: WSW 4mi, 7km
Updated: Thu, 22-Jun-2017 5:55pm PDT
Partly cloudy
Partly cloudy
 Wind from WSW
Wind: WSW 7 mph , 11 km/h
Temperature: 66°F , 19°C
Dew Point: 61°F , 16°C
Humidity: 83%
Barometer: 29.80 inHg , 1009.1 hPa
Clouds: Partly cloudy
Visibility: 9 miles , 14 km
Cloud details: Partly cloudy 1300 ft
2017/06/23 00:55 KCMA 230055Z 24006KT 9SM SCT013 19/16 A2980 RMK AO2 SLP100 T01940156
KNTD - Point Mugu Nas, California, USA
Distance from station: SSW 9mi, 15km
Updated: Thu, 22-Jun-2017 5:56pm PDT
Overcast
Overcast
 Wind from WSW
Wind: WSW 9 mph , 15 km/h
Temperature: 64°F , 18°C
Dew Point: 59°F , 15°C
Humidity: 83%
Barometer: 29.81 inHg , 1009.5 hPa
Clouds: Overcast
Visibility: 7 miles , 11 km
Cloud details: Overcast 800 ft
2017/06/23 00:56 KNTD 230056Z 24008KT 7SM OVC008 18/15 A2981 RMK AO2 SLP096 T01830150 VISNO N $
 
KOXR - Oxnard, California, USA
Distance from station: WSW 10mi, 16km
Updated: Thu, 22-Jun-2017 5:51pm PDT
Overcast
Overcast
 Wind from WSW
Wind: WSW 6 mph , 9 km/h
Temperature: 64°F , 18°C
Dew Point: 59°F , 15°C
Humidity: 83%
Barometer: 29.81 inHg , 1009.5 hPa
Clouds: Overcast
Visibility: 7 miles , 11 km
Cloud details: Overcast 900 ft
2017/06/23 00:51 KOXR 230051Z 24005KT 7SM OVC009 18/15 A2981 RMK AO2 SLP093 T01830150
KVNY - Van Nuys, California, USA
Distance from station: E 31mi, 50km
Updated: Thu, 22-Jun-2017 5:51pm PDT
Clear
Clear
 Wind from SSE
Wind: SSE 12 mph , 19 km/h
Temperature: 82°F , 28°C
Heat Index: 82°F , 28°C
Dew Point: 59°F , 15°C
Humidity: 45%
Barometer: 29.78 inHg , 1008.5 hPa
Clouds: Clear
Visibility: 10 miles , 16 km
2017/06/23 00:51 KVNY 230051Z 15010KT 10SM CLR 28/15 A2978 RMK AO2 SLP076 T02780150 $
 
KWHP - La / Whiteman, California, USA
Distance from station: E 35mi, 56km
Updated: Thu, 22-Jun-2017 3:55pm PDT
NOT Current
Clear
Clear
 Wind from SE
Wind: SE 9 mph , 15 km/h
Temperature: 84°F , 29°C
Heat Index: 83°F , 28°C
Dew Point: 57°F , 14°C
Humidity: 40%
Barometer: 29.84 inHg , 1010.5 hPa
Clouds: Clear
Visibility: 10 miles , 16 km
2017/06/22 22:55 KWHP 222255Z 13008KT 10SM SKC 29/14 A2984
KSMO - Santa Monica, California, USA
Distance from station: ESE 36mi, 58km
Updated: Thu, 22-Jun-2017 5:51pm PDT
Few Clouds
Few Clouds
 Wind from SSW
Wind: SSW 7 mph , 11 km/h
Temperature: 68°F , 20°C
Dew Point: 61°F , 16°C
Humidity: 78%
Barometer: 29.81 inHg , 1009.5 hPa
Clouds: Few Clouds
Visibility: 10 miles , 16 km
Cloud details: Few Clouds 1000 ft
2017/06/23 00:51 KSMO 230051Z 21006KT 10SM FEW010 20/16 A2981 RMK AO2 SLP094 T02000161
 
KBUR - Burbank, California, USA
Distance from station: E 38mi, 61km
Updated: Thu, 22-Jun-2017 5:53pm PDT
Clear
Clear
 Wind from S
Wind: S 12 mph , 19 km/h
Temperature: 79°F , 26°C
Dew Point: 59°F , 15°C
Humidity: 51%
Barometer: 29.79 inHg , 1008.8 hPa
Clouds: Clear
Visibility: 10 miles , 16 km
2017/06/23 00:53 KBUR 230053Z 18010KT 10SM CLR 26/15 A2979 RMK AO2 SLP073 T02610150
KSDB - Sandberg, California, USA
Distance from station: NNE 40mi, 64km
Updated: Thu, 22-Jun-2017 5:53pm PDT
Clear
Clear
 Wind from S
Wind: S 13 mph , 20 km/h
Temperature: 88°F , 31°C
Dew Point: 45°F , 7°C
Humidity: 22%
Barometer: 30.02 inHg , 1016.6 hPa
Clouds: Clear
Visibility: 10 miles , 16 km
2017/06/23 00:53 KSDB 230053Z AUTO 19011KT 10SM CLR 31/07 A3002 RMK AO2 SLP098 T03060067
 
KLAX - Los Angeles, California, USA
Distance from station: ESE 42mi, 68km
Updated: Thu, 22-Jun-2017 5:53pm PDT
Few Clouds
Few Clouds
 Wind from W
Wind: W 12 mph , 19 km/h
Temperature: 68°F , 20°C
Dew Point: 61°F , 16°C
Humidity: 78%
Barometer: 29.81 inHg , 1009.5 hPa
Clouds: Few Clouds
Visibility: 10 miles , 16 km
Cloud details: Few Clouds 1000 ft
2017/06/23 00:53 KLAX 230053Z 27010KT 10SM FEW010 20/16 A2981 RMK AO2 SLP093 T02000161
KCQT - Los Angeles, California, USA
Distance from station: ESE 45mi, 73km
Updated: Thu, 22-Jun-2017 2:47pm PDT
NOT Current
Clear
Clear
 Wind from calm
Wind: Calm
Temperature: 79°F , 26°C
Dew Point: 61°F , 16°C
Humidity: 54%
Barometer: 29.81 inHg , 1009.5 hPa
Clouds: Clear
Visibility: 10 miles , 16 km
2017/06/22 21:47 KCQT 222147Z AUTO 00000KT 10SM CLR 26/16 A2981 RMK AO2 SLP090 T02610161
 
KHHR - Hawthorne, California, USA
Distance from station: ESE 45mi, 73km
Updated: Thu, 22-Jun-2017 5:53pm PDT
Clear
Clear
 Wind from W
Wind: W 9 mph , 15 km/h
Temperature: 70°F , 21°C
Dew Point: 61°F , 16°C
Humidity: 73%
Barometer: 29.81 inHg , 1009.5 hPa
Clouds: Clear
Visibility: 10 miles , 16 km
2017/06/23 00:53 KHHR 230053Z 26008KT 10SM CLR 21/16 A2981 RMK AO2 SLP093 T02060156
KSBA - Santa Barbara, California, USA
Distance from station: WNW 49mi, 79km
Updated: Thu, 22-Jun-2017 5:53pm PDT
Haze, Mostly cloudy
Haze, Mostly cloudy
 Wind from SSW
Wind: SSW 6 mph , 9 km/h
Temperature: 66°F , 19°C
Dew Point: 63°F , 17°C
Humidity: 88%
Barometer: 29.81 inHg , 1009.5 hPa
Summary: Haze
Clouds: Mostly cloudy
Visibility: 6 miles , 10 km
Cloud details: Mostly cloudy 900 ft
2017/06/23 00:53 KSBA 230053Z 21005KT 6SM HZ BKN009 19/17 A2981 RMK AO2 SLP094 T01890167